Time;durP1;ratioP1;P1;durP2;ratioP2;P2;SDS_P1;SDS_P2;PMS_P1;PMS_P2;Temp;Humidity;BMP_temperature;BMP_pressure;BME280_temperature;BME280_humidity;BME280_pressure;Samples;Min_cycle;Max_cycle;Signal;HPM_P1;HPM_P2
2023/06/26 00:00:07;;;;;;;7.00;6.40;;;;;;;20.66;70.51;98466.69;4137122;28;20213;-54
2023/06/26 00:02:09;;;;;;;6.00;5.60;;;;;;;20.69;70.83;98462.41;4166579;28;20255;-52
2023/06/26 00:04:14;;;;;;;6.25;5.80;;;;;;;20.70;70.68;98461.31;4135940;28;20213;-53
2023/06/26 00:06:16;;;;;;;5.40;5.00;;;;;;;20.62;70.88;98454.53;4133395;28;20233;-52
2023/06/26 00:08:18;;;;;;;6.40;5.90;;;;;;;20.49;71.29;98462.91;4140500;28;21656;-54
2023/06/26 00:10:19;;;;;;;6.07;5.57;;;;;;;20.43;71.44;98453.88;4153342;28;21066;-52
2023/06/26 00:12:21;;;;;;;5.57;5.13;;;;;;;20.43;71.81;98450.28;4139640;28;20638;-54
2023/06/26 00:14:23;;;;;;;6.10;5.70;;;;;;;20.34;72.00;98441.88;4136141;28;20264;-54
2023/06/26 00:16:24;;;;;;;5.47;5.07;;;;;;;20.33;71.81;98447.75;4141280;28;20718;-52
2023/06/26 00:18:26;;;;;;;5.53;5.13;;;;;;;20.31;71.82;98452.81;4139057;28;20204;-51
2023/06/26 00:20:28;;;;;;;6.38;5.88;;;;;;;20.27;72.24;98443.44;4135221;28;20275;-55
2023/06/26 00:22:30;;;;;;;6.10;5.60;;;;;;;20.25;72.32;98451.28;4165847;28;20203;-54
2023/06/26 00:24:32;;;;;;;5.35;4.95;;;;;;;20.21;72.62;98445.53;4136705;28;20224;-52
2023/06/26 00:26:33;;;;;;;6.45;5.85;;;;;;;20.23;72.52;98447.97;4136102;28;20686;-52
2023/06/26 00:28:35;;;;;;;6.70;5.07;;;;;;;20.24;72.47;98449.66;4151501;28;20581;-52
2023/06/26 00:30:37;;;;;;;6.03;5.63;;;;;;;20.23;72.47;98442.41;4140747;28;20637;-52
2023/06/26 00:32:39;;;;;;;5.93;5.47;;;;;;;20.26;72.55;98448.19;4150376;28;20208;-51
2023/06/26 00:34:41;;;;;;;6.10;5.60;;;;;;;20.24;72.77;98444.09;4133248;28;20700;-52
2023/06/26 00:36:43;;;;;;;6.15;5.70;;;;;;;20.16;72.91;98436.47;4133696;28;20276;-53
2023/06/26 00:38:46;;;;;;;6.57;6.05;;;;;;;20.14;73.08;98438.75;4134723;28;20290;-52
2023/06/26 00:40:47;;;;;;;7.22;6.72;;;;;;;20.08;73.79;98434.44;4134647;28;20208;-52
2023/06/26 00:42:49;;;;;;;6.32;5.90;;;;;;;19.96;74.17;98434.13;4164089;28;20291;-52
2023/06/26 00:44:51;;;;;;;6.57;6.07;;;;;;;19.89;74.31;98430.97;4138091;28;20244;-52
2023/06/26 00:46:53;;;;;;;5.95;5.55;;;;;;;19.85;74.54;98429.97;4146820;28;20283;-51
2023/06/26 00:48:55;;;;;;;6.05;5.65;;;;;;;19.87;74.65;98428.53;4138038;28;20538;-52
2023/06/26 00:50:57;;;;;;;5.97;5.57;;;;;;;19.89;74.56;98426.25;4149309;28;20212;-52
2023/06/26 00:53:01;;;;;;;7.32;5.80;;;;;;;19.89;74.20;98433.75;4133861;28;20286;-52
2023/06/26 00:55:03;;;;;;;6.63;6.03;;;;;;;19.88;74.24;98437.66;4134085;28;20810;-52
2023/06/26 00:57:05;;;;;;;5.93;5.43;;;;;;;19.93;74.26;98429.22;4148210;28;20217;-53
2023/06/26 00:59:07;;;;;;;6.38;5.78;;;;;;;19.91;74.21;98434.28;4136344;28;20213;-52
2023/06/26 01:01:14;;;;;;;6.32;5.82;;;;;;;19.89;74.46;98436.53;4135301;28;20294;-52
2023/06/26 01:03:15;;;;;;;6.35;5.90;;;;;;;19.79;74.95;98436.75;4147817;28;20208;-52
2023/06/26 01:05:20;;;;;;;6.82;6.32;;;;;;;19.74;75.47;98436.88;4136533;28;20225;-51
2023/06/26 01:07:22;;;;;;;6.25;5.85;;;;;;;19.61;75.77;98432.16;4142699;28;20363;-52
2023/06/26 01:09:25;;;;;;;6.68;6.18;;;;;;;19.53;75.96;98424.56;4166426;28;20315;-54
2023/06/26 01:11:27;;;;;;;6.20;5.75;;;;;;;19.47;76.23;98423.00;4140373;28;20224;-52
2023/06/26 01:13:29;;;;;;;6.15;5.65;;;;;;;19.42;76.49;98423.13;4166960;28;20843;-52
2023/06/26 01:15:31;;;;;;;6.47;5.97;;;;;;;19.46;76.53;98421.38;4134518;28;20233;-54
2023/06/26 01:17:33;;;;;;;6.50;6.00;;;;;;;19.41;76.66;98424.25;4134799;28;20280;-52
2023/06/26 01:19:35;;;;;;;7.60;6.90;;;;;;;19.38;76.92;98427.66;4135603;28;20233;-52
2023/06/26 01:21:41;;;;;;;7.65;7.00;;;;;;;19.33;76.62;98417.50;4138108;28;20687;-54
2023/06/26 01:23:50;;;;;;;6.85;6.35;;;;;;;19.31;76.42;98418.91;4149570;28;20220;-52
2023/06/26 01:26:08;;;;;;;6.32;5.80;;;;;;;19.21;75.93;98413.56;4134835;28;20224;-53
2023/06/26 01:28:10;;;;;;;6.28;5.78;;;;;;;19.23;76.17;98416.84;4147764;28;20660;-52
2023/06/26 01:30:12;;;;;;;5.90;5.50;;;;;;;19.17;76.21;98418.06;4167156;28;20242;-52
2023/06/26 01:32:13;;;;;;;6.60;5.82;;;;;;;19.17;75.92;98412.53;4139514;28;20248;-52
2023/06/26 01:34:17;;;;;;;5.90;5.50;;;;;;;19.19;76.02;98416.59;4133165;28;20618;-52
2023/06/26 01:36:19;;;;;;;6.78;6.20;;;;;;;19.19;76.10;98415.81;4167156;28;20298;-52
2023/06/26 01:38:23;;;;;;;6.18;5.68;;;;;;;19.19;76.11;98410.25;4131586;28;20205;-54
2023/06/26 01:40:24;;;;;;;6.03;5.60;;;;;;;19.23;76.27;98416.84;4132579;28;20204;-54
2023/06/26 01:42:27;;;;;;;6.13;5.63;;;;;;;19.20;76.22;98418.31;4147645;28;20259;-52
2023/06/26 01:44:30;;;;;;;4.97;4.60;;;;;;;19.20;76.56;98411.94;4146393;28;20216;-52
2023/06/26 01:46:47;;;;;;;6.13;5.53;;;;;;;19.16;76.99;98405.31;4153938;28;20236;-52
2023/06/26 01:49:16;;;;;;;6.47;5.88;;;;;;;19.05;77.86;98406.66;4138069;28;20255;-55
2023/06/26 01:51:19;;;;;;;7.28;6.10;;;;;;;19.02;78.40;98412.78;4131964;28;20205;-52
2023/06/26 01:53:25;;;;;;;6.20;5.70;;;;;;;18.96;78.44;98411.25;4132099;28;20212;-53
2023/06/26 01:55:55;;;;;;;6.13;5.72;;;;;;;18.92;78.56;98410.22;4130924;28;20243;-52
2023/06/26 01:57:58;;;;;;;6.53;6.05;;;;;;;18.91;78.64;98420.50;4132196;28;20283;-54
2023/06/26 02:00:01;;;;;;;6.38;5.90;;;;;;;18.94;78.79;98410.75;4164592;28;20310;-54
2023/06/26 02:02:07;;;;;;;6.18;5.75;;;;;;;18.92;78.57;98410.22;4164206;28;20205;-55
2023/06/26 02:04:09;;;;;;;7.85;6.32;;;;;;;18.89;79.18;98414.44;4137908;28;20214;-52
2023/06/26 02:06:11;;;;;;;6.55;6.05;;;;;;;18.78;79.93;98409.41;4147477;28;20805;-53
2023/06/26 02:08:14;;;;;;;6.82;6.30;;;;;;;18.69;80.14;98414.81;4145910;28;20327;-52
2023/06/26 02:10:16;;;;;;;6.38;5.90;;;;;;;18.64;80.18;98409.34;4149308;28;20217;-52
2023/06/26 02:12:17;;;;;;;5.50;5.10;;;;;;;18.64;80.22;98414.91;4132063;28;20217;-52
2023/06/26 02:14:19;;;;;;;7.68;6.97;;;;;;;18.66;80.15;98411.81;4147413;28;20209;-54
2023/06/26 02:16:21;;;;;;;6.05;5.55;;;;;;;18.64;79.97;98414.91;4134089;28;20731;-54
2023/06/26 02:18:24;;;;;;;7.15;6.55;;;;;;;18.65;79.99;98415.72;4131532;28;20204;-51
2023/06/26 02:20:25;;;;;;;6.57;6.07;;;;;;;18.71;79.99;98415.31;4148029;28;20218;-53
2023/06/26 02:22:28;;;;;;;6.13;5.65;;;;;;;18.71;79.82;98418.09;4134610;28;20217;-52
2023/06/26 02:24:30;;;;;;;6.97;6.47;;;;;;;18.69;79.87;98419.53;4135708;28;20292;-52
2023/06/26 02:26:32;;;;;;;5.85;5.45;;;;;;;18.71;79.82;98417.28;4137188;28;20279;-52
2023/06/26 02:28:34;;;;;;;6.53;6.03;;;;;;;18.67;79.86;98419.00;4136239;28;20580;-52
2023/06/26 02:30:36;;;;;;;6.07;5.57;;;;;;;18.60;80.02;98418.59;4133861;28;20714;-55
2023/06/26 02:32:38;;;;;;;6.03;5.60;;;;;;;18.51;80.31;98412.09;4132573;28;20233;-52
2023/06/26 02:34:40;;;;;;;5.60;5.20;;;;;;;18.49;80.37;98414.34;4131486;28;20305;-55
2023/06/26 02:36:42;;;;;;;7.75;7.15;;;;;;;18.46;80.73;98423.28;4164628;28;20259;-53
2023/06/26 02:38:43;;;;;;;6.03;5.43;;;;;;;18.38;81.23;98419.22;4135070;28;20206;-52
2023/06/26 02:40:45;;;;;;;6.63;6.15;;;;;;;18.35;81.36;98410.69;4164674;28;20200;-53
2023/06/26 02:42:47;;;;;;;6.82;6.32;;;;;;;18.27;81.74;98419.66;4129259;28;20691;-52
2023/06/26 02:44:48;;;;;;;7.68;7.03;;;;;;;18.23;81.78;98413.91;4132142;28;20243;-53
2023/06/26 02:46:50;;;;;;;6.72;6.22;;;;;;;18.20;82.05;98416.47;4162939;28;20209;-52
2023/06/26 02:48:52;;;;;;;6.40;6.00;;;;;;;18.18;82.15;98413.19;4145192;28;20274;-52
2023/06/26 02:50:53;;;;;;;6.10;5.65;;;;;;;18.13;82.17;98418.78;4135586;28;20256;-51
2023/06/26 02:52:55;;;;;;;6.70;6.20;;;;;;;18.14;82.18;98414.91;4138972;28;20201;-52
2023/06/26 02:54:57;;;;;;;5.93;5.53;;;;;;;18.14;82.19;98420.44;4128232;28;20608;-53
2023/06/26 02:56:59;;;;;;;6.65;5.95;;;;;;;18.13;82.09;98419.59;4147762;28;22019;-53
2023/06/26 02:59:01;;;;;;;8.45;5.90;;;;;;;18.11;82.03;98421.06;4121292;28;20244;-53
2023/06/26 03:01:02;;;;;;;6.70;6.20;;;;;;;18.10;82.28;98419.38;4136296;28;20220;-52
2023/06/26 03:03:04;;;;;;;6.97;6.47;;;;;;;18.06;82.23;98418.34;4145732;28;20882;-54
2023/06/26 03:05:06;;;;;;;5.97;5.57;;;;;;;18.03;82.20;98424.47;4138781;28;20233;-53
2023/06/26 03:07:08;;;;;;;7.53;6.82;;;;;;;18.02;82.42;98425.59;4137376;28;20665;-54
2023/06/26 03:09:10;;;;;;;6.18;5.68;;;;;;;18.01;82.81;98432.25;4145857;28;20216;-54
2023/06/26 03:11:12;;;;;;;6.45;5.95;;;;;;;17.97;82.70;98420.13;4164157;28;20270;-55
2023/06/26 03:13:14;;;;;;;8.02;7.32;;;;;;;17.94;82.71;98423.50;4130073;28;20268;-52
2023/06/26 03:15:15;;;;;;;6.15;5.30;;;;;;;17.93;82.62;98435.72;4137592;28;20229;-54
2023/06/26 03:17:20;;;;;;;7.20;6.60;;;;;;;17.98;82.65;98432.88;4135391;28;20213;-53
2023/06/26 03:19:22;;;;;;;6.35;5.85;;;;;;;18.02;82.78;98423.66;4135491;28;20576;-52
2023/06/26 03:21:23;;;;;;;6.45;5.95;;;;;;;18.00;82.72;98425.09;4136455;28;20308;-53
2023/06/26 03:23:25;;;;;;;7.25;6.65;;;;;;;17.82;82.99;98425.91;4145509;28;20264;-55
2023/06/26 03:25:27;;;;;;;5.93;5.53;;;;;;;17.82;83.59;98423.97;4130062;28;20225;-52
2023/06/26 03:27:29;;;;;;;7.45;6.85;;;;;;;17.93;83.46;98424.66;4142806;28;20241;-54
2023/06/26 03:29:30;;;;;;;6.78;6.28;;;;;;;17.91;83.41;98415.81;4130943;28;20268;-52
2023/06/26 03:31:32;;;;;;;12.75;6.90;;;;;;;17.88;83.25;98416.41;4148074;28;20205;-53
2023/06/26 03:33:34;;;;;;;7.32;6.82;;;;;;;17.75;83.68;98417.16;4143378;28;20213;-52
2023/06/26 03:35:36;;;;;;;6.20;5.70;;;;;;;17.74;83.42;98415.50;4135454;28;20238;-52
2023/06/26 03:37:37;;;;;;;7.53;6.88;;;;;;;17.76;83.29;98424.31;4137539;28;20197;-55
2023/06/26 03:39:39;;;;;;;6.82;6.32;;;;;;;17.76;83.68;98419.63;4146022;28;20691;-54
2023/06/26 03:41:41;;;;;;;6.35;5.85;;;;;;;17.75;83.64;98422.69;4144434;28;20206;-54
2023/06/26 03:43:43;;;;;;;6.63;6.13;;;;;;;17.76;83.77;98414.09;4143295;28;20221;-53
2023/06/26 03:45:44;;;;;;;6.88;6.38;;;;;;;17.74;83.65;98423.81;4128998;28;20230;-52
2023/06/26 03:47:49;;;;;;;5.85;5.40;;;;;;;17.74;83.57;98421.03;4130958;28;20226;-53
2023/06/26 03:49:51;;;;;;;6.65;6.15;;;;;;;17.75;84.09;98417.16;4133873;28;20699;-52
2023/06/26 03:51:53;;;;;;;7.78;7.18;;;;;;;17.70;84.48;98414.44;4130700;28;20223;-55
2023/06/26 03:53:54;;;;;;;7.22;6.57;;;;;;;17.71;84.67;98424.41;4126810;28;20672;-52
2023/06/26 03:55:59;;;;;;;6.28;5.78;;;;;;;17.65;84.77;98428.38;4132694;28;20296;-52
2023/06/26 03:58:01;;;;;;;7.45;6.53;;;;;;;17.68;85.05;98425.00;4148914;28;20272;-53
2023/06/26 04:00:08;;;;;;;6.80;6.30;;;;;;;17.73;84.92;98425.75;4133103;28;20244;-51
2023/06/26 04:02:12;;;;;;;6.53;5.97;;;;;;;17.76;84.77;98418.78;4133661;28;20660;-54
2023/06/26 04:04:14;;;;;;;6.47;6.03;;;;;;;17.53;86.13;98414.94;4144864;28;20209;-53
2023/06/26 04:06:16;;;;;;;7.25;6.72;;;;;;;17.60;85.73;98415.41;4165233;28;20235;-52
2023/06/26 04:08:19;;;;;;;7.35;6.85;;;;;;;17.58;85.66;98422.38;4132143;28;20260;-54
2023/06/26 04:10:21;;;;;;;7.57;6.88;;;;;;;17.60;85.28;98420.13;4131124;28;20702;-52
2023/06/26 04:12:23;;;;;;;5.93;5.47;;;;;;;17.59;85.26;98418.50;4149262;28;20323;-54
2023/06/26 04:14:24;;;;;;;6.93;6.38;;;;;;;17.67;85.29;98421.44;4130784;28;20635;-52
2023/06/26 04:16:26;;;;;;;8.20;7.60;;;;;;;17.50;85.87;98414.72;4136621;28;20259;-52
2023/06/26 04:18:28;;;;;;;8.52;7.82;;;;;;;17.49;86.25;98426.91;4134869;28;20199;-51
2023/06/26 04:20:30;;;;;;;7.72;7.03;;;;;;;17.47;85.72;98424.47;4138059;28;20248;-53
2023/06/26 04:22:32;;;;;;;7.30;6.70;;;;;;;17.54;85.58;98427.69;4146601;28;20278;-54
2023/06/26 04:24:34;;;;;;;7.43;6.82;;;;;;;17.58;85.11;98427.91;4149720;28;20205;-51
2023/06/26 04:26:36;;;;;;;7.40;6.80;;;;;;;17.63;85.24;98431.44;4140626;28;20785;-51
2023/06/26 04:28:38;;;;;;;6.65;6.00;;;;;;;17.67;85.82;98431.66;4135920;28;20230;-53
2023/06/26 04:30:40;;;;;;;7.45;6.95;;;;;;;17.71;86.68;98422.44;4132337;28;20252;-52
2023/06/26 04:32:42;;;;;;;7.03;6.53;;;;;;;17.64;86.64;98423.97;4135796;28;20288;-52
2023/06/26 04:34:44;;;;;;;7.25;6.75;;;;;;;17.65;86.75;98428.38;4141181;28;20356;-51
2023/06/26 04:36:47;;;;;;;6.75;6.25;;;;;;;17.67;86.43;98432.50;4135914;28;20201;-52
2023/06/26 04:38:49;;;;;;;6.40;5.90;;;;;;;17.76;86.48;98429.84;4141329;28;20549;-52
2023/06/26 04:40:51;;;;;;;7.50;7.00;;;;;;;17.77;86.06;98431.50;4137175;28;20201;-52
2023/06/26 04:42:53;;;;;;;7.10;6.60;;;;;;;17.81;86.46;98432.56;4164398;28;20204;-52
2023/06/26 04:44:54;;;;;;;6.82;6.30;;;;;;;17.85;86.53;98439.16;4133728;28;20209;-52
2023/06/26 04:46:56;;;;;;;7.47;6.88;;;;;;;17.87;86.41;98428.59;4133365;28;20214;-52
2023/06/26 04:48:58;;;;;;;10.07;6.63;;;;;;;17.95;86.24;98439.00;4137788;28;20569;-51
2023/06/26 04:51:00;;;;;;;8.35;7.30;;;;;;;17.91;86.39;98432.44;4141852;28;20213;-51
2023/06/26 04:53:02;;;;;;;7.88;7.28;;;;;;;17.98;86.42;98430.13;4142732;28;20284;-52
2023/06/26 04:55:04;;;;;;;7.15;6.55;;;;;;;18.04;86.72;98432.50;4132111;28;20358;-52
2023/06/26 04:57:08;;;;;;;7.35;6.75;;;;;;;17.99;86.68;98429.78;4133926;28;20210;-52
2023/06/26 04:59:13;;;;;;;6.88;6.38;;;;;;;18.06;86.16;98429.44;4162754;28;20559;-52
2023/06/26 05:01:15;;;;;;;6.90;6.40;;;;;;;18.02;86.75;98433.91;4142706;28;20228;-52
2023/06/26 05:03:17;;;;;;;7.05;6.45;;;;;;;18.10;86.22;98436.84;4139251;28;20269;-52
2023/06/26 05:05:19;;;;;;;8.05;7.45;;;;;;;18.16;85.64;98430.09;4163636;28;20608;-52
2023/06/26 05:07:21;;;;;;;7.53;6.97;;;;;;;18.05;86.79;98427.78;4160225;28;20259;-52
2023/06/26 05:09:23;;;;;;;7.30;6.80;;;;;;;18.10;86.46;98436.00;4147001;28;20233;-52
2023/06/26 05:11:25;;;;;;;7.80;7.25;;;;;;;18.25;85.93;98435.78;4129354;28;20615;-53
2023/06/26 05:13:27;;;;;;;8.30;7.70;;;;;;;18.33;85.32;98435.13;4135270;28;20301;-53
2023/06/26 05:15:28;;;;;;;7.75;7.15;;;;;;;18.42;84.59;98438.84;4133961;28;21643;-52
2023/06/26 05:17:30;;;;;;;6.80;6.30;;;;;;;18.48;84.07;98434.88;4164682;28;20204;-52
2023/06/26 05:19:32;;;;;;;7.05;6.45;;;;;;;18.57;84.04;98436.63;4131540;28;20688;-52
2023/06/26 05:21:34;;;;;;;7.20;6.68;;;;;;;18.50;84.71;98433.44;4149119;28;20530;-51
2023/06/26 05:23:36;;;;;;;7.22;6.63;;;;;;;18.59;84.08;98433.56;4143446;28;20259;-52
2023/06/26 05:25:38;;;;;;;7.03;6.53;;;;;;;18.71;83.07;98431.16;4140257;28;20229;-52
2023/06/26 05:27:40;;;;;;;7.85;7.25;;;;;;;18.82;82.33;98438.13;4131504;28;20248;-53
2023/06/26 05:29:42;;;;;;;7.95;7.15;;;;;;;18.93;81.79;98434.06;4132403;28;20233;-53
2023/06/26 05:31:45;;;;;;;6.10;5.65;;;;;;;19.06;81.89;98436.03;4132886;28;20260;-52
2023/06/26 05:33:46;;;;;;;6.22;5.80;;;;;;;19.19;81.30;98438.81;4133661;28;20607;-52
2023/06/26 05:35:48;;;;;;;6.70;6.20;;;;;;;19.38;80.33;98444.31;4130801;28;21794;-52
2023/06/26 05:37:51;;;;;;;7.53;6.82;;;;;;;19.48;80.70;98446.88;4134250;28;20205;-52
2023/06/26 05:39:54;;;;;;;7.72;7.03;;;;;;;19.62;80.93;98442.94;4157290;28;20239;-53
2023/06/26 05:41:57;;;;;;;7.72;7.22;;;;;;;19.70;81.99;98444.16;4122362;28;20286;-53
2023/06/26 05:43:58;;;;;;;6.95;6.45;;;;;;;19.67;82.34;98442.84;4128504;28;20216;-52
2023/06/26 05:46:00;;;;;;;7.65;7.05;;;;;;;19.65;82.59;98434.00;4145118;28;20225;-52
2023/06/26 05:48:02;;;;;;;9.70;8.13;;;;;;;19.82;81.75;98438.91;4129313;28;20708;-51
2023/06/26 05:50:05;;;;;;;9.15;8.35;;;;;;;19.81;80.94;98440.03;4125714;28;20233;-51
2023/06/26 05:52:10;;;;;;;7.55;7.05;;;;;;;20.18;80.90;98448.13;4129259;28;20300;-51
2023/06/26 05:54:13;;;;;;;7.80;7.25;;;;;;;20.48;79.89;98456.56;4126422;28;20197;-52
2023/06/26 05:56:15;;;;;;;7.70;7.18;;;;;;;20.56;78.00;98452.19;4128997;28;20240;-52
2023/06/26 05:58:18;;;;;;;9.55;7.95;;;;;;;20.56;78.46;98449.41;4129473;28;20208;-51
2023/06/26 06:00:20;;;;;;;7.13;6.63;;;;;;;20.78;75.48;98450.22;4135384;28;20539;-51
2023/06/26 06:02:22;;;;;;;8.02;7.30;;;;;;;20.85;75.69;98444.22;4137949;28;20240;-51
2023/06/26 06:04:24;;;;;;;7.40;6.88;;;;;;;21.10;75.53;98446.34;4165804;28;20712;-52
2023/06/26 06:06:26;;;;;;;7.40;6.90;;;;;;;21.34;74.12;98441.22;4136171;28;20754;-52
2023/06/26 06:08:28;;;;;;;7.60;7.07;;;;;;;21.53;72.78;98444.56;4132159;28;20221;-52
2023/06/26 06:10:29;;;;;;;6.88;6.38;;;;;;;21.66;72.40;98443.63;4146312;28;20212;-52
2023/06/26 06:12:31;;;;;;;7.35;6.85;;;;;;;21.88;71.71;98447.16;4131049;28;20204;-52
2023/06/26 06:14:34;;;;;;;7.82;7.10;;;;;;;22.08;71.72;98443.75;4149845;28;20742;-52
2023/06/26 06:16:36;;;;;;;7.43;6.93;;;;;;;22.26;70.02;98439.84;4135695;28;20232;-52
2023/06/26 06:18:38;;;;;;;7.00;6.13;;;;;;;22.36;68.79;98447.03;4136446;28;20217;-53
2023/06/26 06:20:39;;;;;;;6.07;5.68;;;;;;;22.15;68.39;98440.47;4135853;28;20687;-52
2023/06/26 06:22:42;;;;;;;6.07;5.57;;;;;;;22.55;67.39;98444.75;4146463;28;20726;-53
2023/06/26 06:24:44;;;;;;;7.00;6.45;;;;;;;22.76;66.84;98440.16;4138335;28;20213;-53
2023/06/26 06:26:45;;;;;;;6.55;6.07;;;;;;;22.89;66.09;98444.72;4133680;28;20256;-53
2023/06/26 06:28:47;;;;;;;6.78;6.28;;;;;;;22.96;64.88;98445.84;4145755;28;20224;-53
2023/06/26 06:30:49;;;;;;;6.30;5.82;;;;;;;23.18;65.55;98445.66;4148391;28;20212;-53
2023/06/26 06:32:52;;;;;;;6.15;5.65;;;;;;;23.47;65.42;98458.88;4160857;28;20203;-52
2023/06/26 06:34:54;;;;;;;5.95;5.55;;;;;;;23.59;64.87;98447.81;4132891;28;20217;-53
2023/06/26 06:36:56;;;;;;;6.25;5.75;;;;;;;23.43;62.96;98452.34;4134301;28;20212;-53
2023/06/26 06:38:58;;;;;;;5.57;5.07;;;;;;;23.62;62.12;98449.91;4132649;28;20212;-52
2023/06/26 06:41:00;;;;;;;5.28;4.82;;;;;;;23.39;61.87;98451.34;4133033;28;20201;-52
2023/06/26 06:43:02;;;;;;;6.53;4.78;;;;;;;23.31;62.61;98452.22;4145303;28;20212;-51
2023/06/26 06:45:07;;;;;;;5.68;5.18;;;;;;;23.29;62.54;98454.50;4133538;28;20212;-53
2023/06/26 06:47:11;;;;;;;5.32;4.88;;;;;;;23.86;61.54;98459.34;4131569;28;20646;-52
2023/06/26 06:49:13;;;;;;;6.22;5.75;;;;;;;24.05;61.24;98463.34;4137542;28;20267;-53
2023/06/26 06:51:15;;;;;;;6.30;4.95;;;;;;;23.90;60.71;98462.31;4130495;28;20252;-52
2023/06/26 06:53:20;;;;;;;5.97;5.47;;;;;;;24.14;61.00;98466.91;4132671;28;20212;-52
2023/06/26 06:55:22;;;;;;;5.25;4.72;;;;;;;24.42;61.76;98462.44;4129853;28;20225;-53
2023/06/26 06:57:24;;;;;;;6.55;6.05;;;;;;;24.70;60.35;98469.16;4147828;28;20227;-53
2023/06/26 06:59:26;;;;;;;5.65;4.97;;;;;;;24.73;59.35;98462.84;4119051;28;20580;-53
2023/06/26 07:01:28;;;;;;;5.82;5.38;;;;;;;24.78;60.01;98471.03;4157683;28;20216;-53
2023/06/26 07:03:30;;;;;;;5.50;5.10;;;;;;;25.09;59.55;98471.41;4157981;28;20208;-53
2023/06/26 07:05:33;;;;;;;5.55;5.15;;;;;;;24.62;58.49;98472.84;4132901;28;20236;-53
2023/06/26 07:07:35;;;;;;;6.72;6.10;;;;;;;24.62;59.40;98478.44;4136270;28;20209;-53
2023/06/26 07:09:37;;;;;;;5.80;5.40;;;;;;;25.15;59.15;98475.63;4136400;28;20267;-53
2023/06/26 07:11:39;;;;;;;6.07;5.60;;;;;;;25.46;58.73;98473.16;4146209;28;20213;-52
2023/06/26 07:13:41;;;;;;;6.55;5.53;;;;;;;25.20;57.87;98478.19;4129256;28;20719;-52
2023/06/26 07:15:43;;;;;;;8.30;5.68;;;;;;;25.57;57.20;98481.91;4135700;28;20233;-53
2023/06/26 07:17:45;;;;;;;5.35;4.95;;;;;;;25.54;56.47;98483.44;4168237;28;20625;-53
2023/06/26 07:19:48;;;;;;;6.43;5.72;;;;;;;25.00;57.65;98479.06;4133251;28;20682;-52
2023/06/26 07:21:49;;;;;;;5.82;5.40;;;;;;;24.80;58.45;98485.50;4133450;28;20714;-52
2023/06/26 07:23:51;;;;;;;5.55;5.13;;;;;;;24.80;58.50;98481.91;4162248;28;20208;-53
2023/06/26 07:25:53;;;;;;;5.60;5.10;;;;;;;25.30;57.66;98477.81;4138943;28;20228;-52
2023/06/26 07:27:55;;;;;;;5.28;4.78;;;;;;;24.83;59.05;98489.63;4144602;28;20217;-52
2023/06/26 07:29:57;;;;;;;5.95;5.53;;;;;;;24.64;59.61;98483.69;4133059;28;20229;-52
2023/06/26 07:31:58;;;;;;;19.17;5.05;;;;;;;24.56;59.84;98491.00;4131258;28;21908;-52
2023/06/26 07:34:00;;;;;;;5.82;5.32;;;;;;;24.37;60.51;98493.41;4138091;28;20209;-52
2023/06/26 07:36:02;;;;;;;7.15;5.97;;;;;;;23.94;61.09;98490.06;4134097;28;22122;-53
2023/06/26 07:38:04;;;;;;;5.53;5.03;;;;;;;23.64;62.07;98483.97;4132514;28;20214;-52
2023/06/26 07:40:06;;;;;;;6.38;5.78;;;;;;;23.61;62.38;98484.63;4133426;28;20691;-53
2023/06/26 07:42:08;;;;;;;6.32;5.78;;;;;;;23.96;62.19;98481.34;4162960;28;20216;-52
2023/06/26 07:44:10;;;;;;;10.00;5.93;;;;;;;23.80;62.07;98488.66;4130481;28;20695;-51
2023/06/26 07:46:11;;;;;;;5.78;5.28;;;;;;;23.73;62.46;98494.75;4143153;28;20234;-52
2023/06/26 07:48:13;;;;;;;7.38;6.68;;;;;;;23.80;62.87;98499.84;4134089;28;20287;-52
2023/06/26 07:50:21;;;;;;;5.78;5.28;;;;;;;23.78;62.83;98497.38;4139669;28;20817;-52
2023/06/26 07:52:23;;;;;;;6.15;5.60;;;;;;;23.83;63.05;98498.34;4136077;28;20677;-51
2023/06/26 07:54:24;;;;;;;5.93;5.43;;;;;;;24.36;62.35;98502.16;4136021;28;20713;-52
2023/06/26 07:56:26;;;;;;;6.38;5.57;;;;;;;24.79;61.14;98517.47;4149493;28;20766;-51
2023/06/26 07:58:28;;;;;;;7.00;6.40;;;;;;;25.05;59.87;98509.66;4142565;28;20212;-51
2023/06/26 08:00:29;;;;;;;5.38;4.88;;;;;;;25.26;59.22;98516.06;4135870;28;20205;-52
2023/06/26 08:02:31;;;;;;;11.15;5.28;;;;;;;25.53;59.22;98521.03;4134529;28;20210;-52
2023/06/26 08:04:33;;;;;;;7.20;5.93;;;;;;;26.05;59.28;98527.69;4133372;28;20231;-53
2023/06/26 08:06:40;;;;;;;7.05;5.80;;;;;;;25.78;57.94;98525.53;4138479;28;20233;-52
2023/06/26 08:08:41;;;;;;;5.00;4.60;;;;;;;26.12;58.36;98527.13;4134737;28;20204;-52
2023/06/26 08:10:43;;;;;;;7.00;5.28;;;;;;;25.37;59.18;98524.84;4140035;28;20590;-52
2023/06/26 08:12:46;;;;;;;5.53;4.97;;;;;;;25.81;58.32;98533.28;4136945;28;20209;-52
2023/06/26 08:14:48;;;;;;;5.85;5.35;;;;;;;25.72;58.38;98528.94;4132650;28;20213;-52
2023/06/26 08:16:50;;;;;;;6.13;5.63;;;;;;;25.54;59.03;98525.47;4152059;28;20205;-52
2023/06/26 08:18:52;;;;;;;7.63;6.07;;;;;;;25.53;59.46;98526.66;4134460;28;20243;-52
2023/06/26 08:20:55;;;;;;;6.75;5.63;;;;;;;25.41;59.48;98529.44;4149658;28;20258;-51
2023/06/26 08:22:56;;;;;;;5.60;5.18;;;;;;;25.40;59.58;98538.19;4167716;28;20318;-53
2023/06/26 08:24:58;;;;;;;6.93;5.47;;;;;;;25.85;58.69;98539.81;4149967;28;20251;-52
2023/06/26 08:27:00;;;;;;;4.93;4.53;;;;;;;26.19;57.56;98522.53;4138258;28;20217;-51
2023/06/26 08:29:08;;;;;;;6.25;5.07;;;;;;;26.63;57.84;98530.00;4163455;28;20594;-52
2023/06/26 08:31:12;;;;;;;5.47;4.95;;;;;;;27.11;55.91;98532.66;4138104;28;20205;-52
2023/06/26 08:33:14;;;;;;;7.13;5.07;;;;;;;26.93;55.71;98525.69;4136050;28;20208;-52
2023/06/26 08:35:16;;;;;;;5.10;4.70;;;;;;;26.77;56.24;98533.25;4144690;28;20533;-51
2023/06/26 08:37:18;;;;;;;5.45;5.05;;;;;;;26.92;56.61;98526.88;4130528;28;20205;-53
2023/06/26 08:39:19;;;;;;;13.90;5.75;;;;;;;26.74;55.98;98519.94;4132891;28;20205;-51
2023/06/26 08:41:21;;;;;;;5.00;4.40;;;;;;;26.46;56.42;98521.00;4131538;28;20210;-52
2023/06/26 08:43:23;;;;;;;11.90;5.43;;;;;;;26.42;57.63;98528.50;4148766;28;20291;-52
2023/06/26 08:45:25;;;;;;;8.35;4.90;;;;;;;26.71;56.89;98534.66;4132225;28;20237;-53
2023/06/26 08:47:27;;;;;;;4.93;4.53;;;;;;;26.67;56.19;98528.09;4156319;28;20213;-51
2023/06/26 08:49:35;;;;;;;4.90;4.50;;;;;;;26.85;55.38;98528.69;4147859;28;20610;-51
2023/06/26 08:51:39;;;;;;;5.00;4.60;;;;;;;27.17;54.76;98536.88;4166922;28;20212;-52
2023/06/26 08:53:47;;;;;;;4.88;3.40;;;;;;;27.17;54.19;98524.81;4163383;28;20212;-51
2023/06/26 08:55:52;;;;;;;5.30;4.78;;;;;;;27.13;54.32;98527.50;4161994;28;20257;-53
2023/06/26 08:57:54;;;;;;;6.68;4.22;;;;;;;27.45;54.47;98529.25;4130828;28;20216;-52
2023/06/26 08:59:56;;;;;;;3.90;3.60;;;;;;;27.69;53.36;98531.09;4145784;28;20273;-52
2023/06/26 09:01:58;;;;;;;4.40;4.10;;;;;;;27.92;53.13;98530.16;4166379;28;20273;-51
2023/06/26 09:03:59;;;;;;;4.38;3.78;;;;;;;27.34;52.75;98535.75;4129194;28;20217;-49
2023/06/26 09:06:01;;;;;;;4.15;3.75;;;;;;;27.72;52.98;98541.66;4148177;28;20295;-52
2023/06/26 09:08:03;;;;;;;4.55;4.07;;;;;;;27.31;52.37;98534.47;4138590;28;20259;-50
2023/06/26 09:10:06;;;;;;;7.80;4.43;;;;;;;28.02;52.85;98540.03;4123958;28;20288;-50
2023/06/26 09:12:09;;;;;;;5.13;3.90;;;;;;;28.51;50.54;98535.69;4151162;28;20267;-50
2023/06/26 09:14:11;;;;;;;3.88;3.15;;;;;;;28.75;51.23;98533.44;4136332;28;20272;-50
2023/06/26 09:16:13;;;;;;;3.97;3.67;;;;;;;28.36;49.93;98534.53;4135986;28;20228;-50
2023/06/26 09:18:18;;;;;;;5.63;4.32;;;;;;;28.42;52.24;98532.22;4139928;28;20224;-50
2023/06/26 09:20:20;;;;;;;5.22;4.15;;;;;;;28.88;49.75;98540.56;4136917;28;20748;-51
2023/06/26 09:22:23;;;;;;;3.72;3.42;;;;;;;29.02;49.66;98534.44;4135189;28;20240;-50
2023/06/26 09:24:25;;;;;;;4.38;3.92;;;;;;;28.33;49.81;98532.38;4165614;28;20250;-50
2023/06/26 09:26:26;;;;;;;3.97;3.60;;;;;;;28.59;49.22;98538.28;4144023;28;20290;-50
2023/06/26 09:28:29;;;;;;;3.72;3.30;;;;;;;29.01;49.22;98544.91;4145835;28;20196;-50
2023/06/26 09:30:34;;;;;;;4.80;3.35;;;;;;;29.10;48.88;98553.97;4143609;28;20216;-49
2023/06/26 09:32:36;;;;;;;3.60;3.20;;;;;;;29.30;47.26;98552.78;4147339;28;20205;-49
2023/06/26 09:34:41;;;;;;;3.17;2.97;;;;;;;29.27;46.78;98547.06;4134036;28;20221;-50
2023/06/26 09:36:46;;;;;;;3.42;3.20;;;;;;;29.66;47.27;98557.97;4162812;28;20259;-51